createdAt,value
2023-02-27T00:03:16.904Z,1.90
2023-02-27T00:08:18.475Z,1.80
2023-02-27T00:13:20.228Z,1.50
2023-02-27T00:18:22.466Z,1.60
2023-02-27T00:23:24.140Z,1.88
2023-02-27T00:28:25.653Z,1.73
2023-02-27T00:33:27.220Z,2.60
2023-02-27T00:38:29.057Z,1.95
2023-02-27T00:43:32.650Z,2.35
2023-02-27T00:48:34.171Z,1.92
2023-02-27T00:53:36.265Z,2.05
2023-02-27T00:58:37.781Z,1.60
2023-02-27T01:03:39.331Z,1.50
2023-02-27T01:08:41.019Z,2.03
2023-02-27T01:13:44.189Z,1.90
2023-02-27T01:18:45.991Z,2.30
2023-02-27T01:23:47.839Z,1.88
2023-02-27T01:28:49.420Z,2.13
2023-02-27T01:33:51.042Z,1.92
2023-02-27T01:38:52.773Z,2.05
2023-02-27T01:43:58.069Z,2.03
2023-02-27T01:49:05.571Z,1.80
2023-02-27T01:54:09.554Z,2.20
2023-02-27T01:59:12.265Z,2.08
2023-02-27T02:04:26.294Z,2.58
2023-02-27T02:09:29.666Z,2.42
2023-02-27T02:14:31.339Z,2.90
2023-02-27T02:20:12.052Z,2.85
2023-02-27T02:25:19.364Z,2.45
2023-02-27T02:31:02.342Z,2.70
2023-02-27T02:36:27.658Z,2.95
2023-02-27T02:41:48.071Z,2.75
2023-02-27T02:47:06.582Z,3.05
2023-02-27T02:52:28.065Z,2.63
2023-02-27T02:57:37.955Z,3.05
2023-02-27T03:02:45.890Z,3.08
2023-02-27T03:13:05.585Z,3.20
2023-02-27T03:18:20.585Z,2.95
2023-02-27T03:23:27.854Z,2.85
2023-02-27T03:28:34.288Z,2.72
2023-02-27T03:33:42.928Z,2.83
2023-02-27T03:39:05.680Z,2.60
2023-02-27T03:44:23.900Z,3.08
2023-02-27T03:49:26.218Z,2.53
2023-02-27T03:54:34.700Z,2.65
2023-02-27T03:59:37.875Z,2.75
2023-02-27T04:04:40.280Z,3.13
2023-02-27T04:10:19.141Z,3.75
2023-02-27T04:15:33.326Z,2.97
2023-02-27T04:20:43.956Z,2.67
2023-02-27T04:26:25.268Z,3.42
2023-02-27T04:31:42.378Z,4.15
2023-02-27T04:36:50.513Z,3.47
2023-02-27T04:41:55.810Z,3.00
2023-02-27T04:47:00.298Z,3.13
2023-02-27T04:52:22.308Z,2.80
2023-02-27T04:57:29.208Z,3.03
2023-02-27T05:02:45.540Z,2.13
2023-02-27T05:08:01.894Z,3.47
2023-02-27T05:13:09.832Z,3.17
2023-02-27T05:18:16.844Z,2.60
2023-02-27T05:23:25.553Z,2.30
2023-02-27T05:28:39.887Z,2.83
2023-02-27T05:33:49.084Z,3.00
2023-02-27T05:38:55.278Z,3.33
2023-02-27T05:44:10.464Z,3.00
2023-02-27T05:49:21.208Z,3.50
2023-02-27T05:54:35.917Z,2.78
2023-02-27T05:59:57.997Z,3.10
2023-02-27T06:04:59.708Z,3.70
2023-02-27T06:10:01.479Z,3.42
2023-02-27T06:15:03.272Z,2.78
2023-02-27T06:20:07.348Z,2.83
2023-02-27T06:25:09.408Z,2.72
2023-02-27T06:30:11.914Z,2.88
2023-02-27T06:35:13.622Z,3.13
2023-02-27T06:40:15.856Z,3.08
2023-02-27T06:45:17.744Z,3.22
2023-02-27T06:50:19.509Z,2.70
2023-02-27T06:55:22.708Z,2.80
2023-02-27T07:00:24.474Z,3.20
2023-02-27T07:05:26.187Z,2.80
2023-02-27T07:10:27.719Z,2.65
2023-02-27T07:15:29.319Z,3.15
2023-02-27T07:20:30.905Z,3.28
2023-02-27T07:25:32.593Z,2.75
2023-02-27T07:30:34.485Z,2.80
2023-02-27T07:35:36.481Z,3.45
2023-02-27T07:40:38.167Z,3.53
2023-02-27T07:45:40.642Z,3.47
2023-02-27T07:50:42.197Z,3.03
2023-02-27T07:55:43.798Z,3.08
2023-02-27T08:00:45.535Z,3.42
2023-02-27T08:05:47.698Z,3.30
2023-02-27T08:10:50.476Z,3.45
2023-02-27T08:15:52.276Z,3.40
2023-02-27T08:20:55.853Z,3.25
2023-02-27T08:25:58.335Z,3.10
2023-02-27T08:31:00.083Z,3.22
2023-02-27T08:36:01.795Z,3.35
2023-02-27T08:41:04.044Z,3.83
2023-02-27T08:46:05.738Z,3.80
2023-02-27T08:51:07.394Z,3.75
2023-02-27T08:56:09.169Z,4.00
2023-02-27T09:01:10.822Z,3.67
2023-02-27T09:06:12.713Z,3.10
2023-02-27T09:11:14.313Z,3.53
2023-02-27T09:16:15.821Z,3.03
2023-02-27T09:21:17.798Z,3.08
2023-02-27T09:26:19.530Z,3.25
2023-02-27T09:31:21.185Z,2.83
2023-02-27T09:36:24.420Z,2.95
2023-02-27T09:41:44.412Z,2.97
2023-02-27T09:46:46.270Z,2.60
2023-02-27T09:51:53.517Z,3.25
2023-02-27T09:57:01.049Z,2.88
2023-02-27T10:02:13.684Z,2.90
2023-02-27T10:07:37.084Z,2.83
2023-02-27T10:12:52.778Z,2.75
2023-02-27T10:18:28.283Z,3.08
2023-02-27T10:23:41.141Z,2.40
2023-02-27T10:28:42.819Z,2.55
2023-02-27T10:33:48.022Z,2.50
2023-02-27T10:38:54.411Z,3.42
2023-02-27T10:43:59.845Z,2.72
2023-02-27T10:49:05.518Z,3.83
2023-02-27T10:54:19.337Z,2.45
2023-02-27T10:59:31.571Z,2.30
2023-02-27T11:04:46.526Z,1.98
2023-02-27T11:10:12.227Z,1.65
2023-02-27T11:15:16.760Z,1.85
2023-02-27T11:20:30.105Z,2.58
2023-02-27T11:25:33.622Z,2.28
2023-02-27T11:30:35.636Z,2.38
2023-02-27T11:35:39.315Z,2.20
2023-02-27T11:40:50.416Z,1.75
2023-02-27T11:46:04.275Z,1.52
2023-02-27T11:51:32.824Z,1.80
2023-02-27T11:56:49.344Z,2.17
2023-02-27T12:02:15.475Z,2.07
2023-02-27T12:07:26.066Z,1.65
2023-02-27T12:12:46.223Z,1.60
2023-02-27T12:17:53.292Z,1.80
2023-02-27T12:22:55.711Z,2.17
2023-02-27T12:28:09.211Z,2.30
2023-02-27T12:33:16.834Z,1.98
2023-02-27T12:38:19.615Z,2.53
2023-02-27T12:43:59.176Z,1.80
2023-02-27T12:49:15.213Z,2.40
2023-02-27T12:54:28.263Z,2.60
2023-02-27T12:59:57.741Z,2.13
2023-02-27T13:05:32.347Z,2.08
2023-02-27T13:10:44.006Z,2.40
2023-02-27T13:15:56.357Z,2.08
2023-02-27T13:21:19.265Z,2.95
2023-02-27T13:26:26.978Z,2.25
2023-02-27T13:31:46.602Z,1.90
2023-02-27T13:36:57.767Z,2.42
2023-02-27T13:41:59.301Z,2.00
2023-02-27T13:47:29.553Z,2.17
2023-02-27T13:52:34.297Z,1.70
2023-02-27T13:57:37.122Z,2.58
2023-02-27T14:03:00.182Z,2.13
2023-02-27T14:08:13.372Z,2.35
2023-02-27T14:13:46.626Z,2.63
2023-02-27T14:18:58.510Z,2.72
2023-02-27T14:24:00.148Z,2.15
2023-02-27T14:29:02.184Z,2.20
2023-02-27T14:34:06.276Z,2.92
2023-02-27T14:39:20.195Z,2.35
2023-02-27T14:44:30.640Z,2.17
2023-02-27T14:49:35.088Z,1.90
2023-02-27T14:54:36.602Z,2.10
2023-02-27T14:59:45.244Z,2.10
2023-02-27T15:04:47.006Z,1.77
2023-02-27T15:09:49.926Z,2.10
2023-02-27T15:14:58.441Z,2.05
2023-02-27T15:20:00.056Z,1.90
2023-02-27T15:25:04.575Z,1.80
2023-02-27T15:30:07.564Z,2.20
2023-02-27T15:35:19.822Z,2.40
2023-02-27T15:40:25.805Z,2.40
2023-02-27T15:45:33.637Z,2.15
2023-02-27T15:50:41.152Z,2.15
2023-02-27T15:55:55.222Z,2.17
2023-02-27T16:01:01.687Z,2.30
2023-02-27T16:06:16.598Z,2.20
2023-02-27T16:11:24.343Z,2.17
2023-02-27T16:16:35.936Z,2.30
2023-02-27T16:21:37.504Z,2.10
2023-02-27T16:26:39.198Z,2.58
2023-02-27T16:31:47.519Z,2.53
2023-02-27T16:37:01.252Z,2.10
2023-02-27T16:42:02.906Z,2.33
2023-02-27T16:47:04.756Z,2.05
2023-02-27T16:52:11.087Z,1.95
2023-02-27T16:57:13.884Z,2.00
2023-02-27T17:02:15.712Z,1.88
2023-02-27T17:07:18.482Z,1.92
2023-02-27T17:12:20.008Z,2.10
2023-02-27T17:17:21.719Z,1.90
2023-02-27T17:22:23.226Z,1.85
2023-02-27T17:27:24.742Z,2.08
2023-02-27T17:32:26.431Z,2.45
2023-02-27T17:37:27.946Z,3.50
2023-02-27T17:42:29.876Z,3.97
2023-02-27T17:47:31.467Z,3.53
2023-02-27T17:52:36.249Z,3.05
2023-02-27T17:57:39.216Z,2.75
2023-02-27T18:02:40.856Z,2.70
2023-02-27T18:07:42.478Z,3.35
2023-02-27T18:12:44.159Z,3.47
2023-02-27T18:17:45.747Z,4.03
2023-02-27T18:22:47.278Z,3.00
2023-02-27T18:27:49.055Z,3.10
2023-02-27T18:32:50.585Z,3.35
2023-02-27T18:37:52.602Z,3.22
2023-02-27T18:42:54.233Z,3.60
2023-02-27T18:47:56.108Z,3.45
2023-02-27T18:52:59.164Z,3.90
2023-02-27T18:58:00.795Z,3.42
2023-02-27T19:03:02.564Z,3.47
2023-02-27T19:08:04.343Z,4.43
2023-02-27T19:13:06.382Z,4.35
2023-02-27T19:18:07.906Z,3.70
2023-02-27T19:23:09.466Z,3.42
2023-02-27T19:28:12.234Z,4.25
2023-02-27T19:33:13.773Z,4.40
2023-02-27T19:38:15.485Z,3.17
2023-02-27T19:43:17.724Z,3.33
2023-02-27T19:48:19.747Z,3.30
2023-02-27T19:53:21.277Z,3.28
2023-02-27T19:58:22.803Z,3.22
2023-02-27T20:03:24.582Z,3.33
2023-02-27T20:08:26.253Z,3.03
2023-02-27T20:13:28.094Z,2.90
2023-02-27T20:18:30.628Z,2.88
2023-02-27T20:23:33.733Z,3.03
2023-02-27T20:28:37.490Z,3.70
2023-02-27T20:33:40.426Z,3.25
2023-02-27T20:38:42.974Z,2.97
2023-02-27T20:43:45.162Z,3.38
2023-02-27T20:48:47.445Z,3.42
2023-02-27T20:53:52.024Z,3.65
2023-02-27T20:58:53.817Z,4.35
2023-02-27T21:03:57.622Z,4.65
2023-02-27T21:09:03.452Z,4.43
2023-02-27T21:14:09.170Z,4.28
2023-02-27T21:19:10.904Z,3.80
2023-02-27T21:24:12.488Z,4.10
2023-02-27T21:29:17.210Z,3.60
2023-02-27T21:34:23.150Z,4.65
2023-02-27T21:39:28.049Z,5.15
2023-02-27T21:44:29.741Z,4.35
2023-02-27T21:49:31.398Z,4.22
2023-02-27T21:54:32.932Z,4.60
2023-02-27T21:59:34.507Z,3.90
2023-02-27T22:04:36.047Z,4.07
2023-02-27T22:09:37.633Z,4.75
2023-02-27T22:14:39.535Z,3.88
2023-02-27T22:19:41.073Z,4.32
2023-02-27T22:24:42.622Z,4.18
2023-02-27T22:29:44.242Z,4.05
2023-02-27T22:34:45.754Z,4.13
2023-02-27T22:39:47.324Z,4.47
2023-02-27T22:44:48.979Z,4.03
2023-02-27T22:49:51.361Z,4.05
2023-02-27T22:54:53.001Z,4.15
2023-02-27T22:59:54.506Z,3.58
2023-02-27T23:04:56.006Z,4.07
2023-02-27T23:09:57.532Z,4.00
2023-02-27T23:14:59.095Z,4.07
2023-02-27T23:20:00.661Z,3.80
2023-02-27T23:25:07.149Z,4.75
2023-02-27T23:30:10.452Z,3.47
2023-02-27T23:35:13.078Z,4.60
2023-02-27T23:40:14.592Z,4.03
2023-02-27T23:45:22.797Z,3.88
2023-02-27T23:50:30.339Z,4.47
2023-02-27T23:55:35.045Z,3.70
